Flight Track Log - Related Links

Times and Time Zones

All times are in EDT time to prevent confusion due to time zone crossing. See the DAL5916 flight status page for this flight to view local times or setup timezone preferences in your user account.


Time Position Orientation Groundspeed Altitude Reporting Facility
EDT Latitude Longitude Course Direction KTS MPH feet Rate Location/Type
Mon 02:39:53 PM 38.7692 -77.0322 90° East 200 230 4,300  Level Washington Center
Mon 02:40:53 PM 38.7408 -76.9703 120° Southeast 207 238 7,700 3,227 Climbing Washington Center
Mon 02:41:52 PM 38.8119 -76.9344 21° North 119 137 10,700 2,622 Climbing Washington Center
Mon 02:42:00 PM 38.9872 -76.4995 74° East  Level FlightAware Approximate
Mon 02:42:52 PM 38.8958 -76.9039 16° North 207 238 12,900  Level Washington Center
Mon 02:43:00 PM 39.0119 -76.3883 74° East  Level FlightAware Approximate
Mon 02:43:52 PM 38.9325 -76.7897 68° East 266 306 15,600  Level Washington Center
Mon 02:44:00 PM 39.0270 -76.2755 72° East  Level FlightAware Approximate
Mon 02:44:53 PM 38.9606 -76.6675 74° East 320 368 17,900  Level Washington Center
Mon 02:45:00 PM 39.0334 -76.1611 90° East  Level FlightAware Approximate
Mon 02:45:52 PM 38.9867 -76.5369 76° East 344 396 19,900  Level Washington Center
Mon 02:46:52 PM 39.0189 -76.4011 73° East 369 425 21,000 942 Climbing Washington Center
Mon 02:47:53 PM 39.0303 -76.2650 84° East 383 441 21,800 984 Climbing Washington Center
Mon 02:48:54 PM 39.0436 -76.1181 83° East 397 457 23,000 605 Climbing Washington Center
Mon 02:49:52 PM 39.0483 -75.9686 88° East 409 471 23,000  Level Washington Center
Mon 02:50:52 PM 39.0547 -75.8189 87° East 409 471 23,000  Level Washington Center
Mon 02:51:52 PM 39.1031 -75.6906 64° Northeast 397 457 23,000  Level Washington Center
Mon 02:52:53 PM 39.1842 -75.5808 46° Northeast 392 451 23,000  Level Washington Center
Mon 02:53:54 PM 39.2739 -75.4817 41° Northeast 402 463 23,000  Level Washington Center
Mon 02:54:52 PM 39.3675 -75.3956 35° Northeast 414 476 23,000  Level Washington Center
Mon 02:55:53 PM 39.4631 -75.3119 34° Northeast 414 476 23,000  Level Washington Center
Mon 02:56:54 PM 39.5567 -75.2256 35° Northeast 408 470 23,000 -1,059 Level Washington Center
Mon 02:57:52 PM 39.6606 -75.1306 35° Northeast 408 470 20,900 -1,983 Descending Washington Center
Mon 02:58:52 PM 39.7375 -75.0625 34° Northeast 395 455 19,100 -1,934 Descending Washington Center
Mon 02:59:53 PM 39.8308 -74.9808 34° Northeast 370 426 17,000 -1,918 Descending Washington Center
Mon 03:01:19 PM 39.9333 -74.8667 40° Northeast 327 376 14,400 -1,726 Descending New York TRACON
Mon 03:02:19 PM 40.0000 -74.7833 44° Northeast 305 351 12,800 -1,650 Descending New York TRACON
Mon 03:03:19 PM 40.0500 -74.7167 46° Northeast 300 345 11,100 -1,400 Descending New York TRACON
Mon 03:04:19 PM 40.1167 -74.6333 44° Northeast 297 342 10,000 -550 Descending New York TRACON
Mon 03:05:19 PM 40.1667 -74.5500 52° Northeast 299 344 10,000 -200 Level New York TRACON
Mon 03:06:19 PM 40.2167 -74.4667 52° Northeast 295 339 9,600 -1,150 Descending New York TRACON
Mon 03:07:19 PM 40.2833 -74.4000 37° Northeast 293 337 7,700 -1,300 Descending New York TRACON
Mon 03:08:19 PM 40.3500 -74.3167 44° Northeast 291 335 7,000 -350 Descending New York TRACON
Mon 03:09:19 PM 40.4000 -74.2500 45° Northeast 294 338 7,000  Level New York TRACON
Mon 03:10:25 PM 40.4667 -74.1667 44° Northeast 294 338 7,000 -286 Level New York TRACON
Mon 03:11:25 PM 40.5167 -74.0833 52° Northeast 291 335 6,400 -1,200 Descending New York TRACON
Mon 03:12:25 PM 40.6000 -74.0667 North 295 339 4,600 -1,200 Descending New York TRACON
Mon 03:13:25 PM 40.6833 -74.0500 North 292 336 4,000 -300 Descending New York TRACON
Mon 03:14:25 PM 40.7500 -74.0000 30° Northeast 290 334 4,000  Level New York TRACON
Mon 03:15:25 PM 40.8333 -73.9667 17° North 291 335 4,000  Level New York TRACON
Mon 03:16:25 PM 40.9000 -73.9167 30° Northeast 262 302 4,000  Level New York TRACON
Mon 03:17:25 PM 40.9500 -73.9000 14° North 210 242 4,000  Level New York TRACON
Mon 03:18:25 PM 40.9833 -73.8333 56° Northeast 196 226 4,000 -400 Level New York TRACON
Mon 03:19:25 PM 40.9667 -73.7833 114° Southeast 164 189 3,200 -850 Descending New York TRACON
Mon 03:20:25 PM 40.9333 -73.7500 143° Southeast 171 197 2,300 -600 Descending New York TRACON
Mon 03:21:25 PM 40.8833 -73.7833 207° Southwest 174 200 2,000 -300 Descending New York TRACON

Login

Don't have an account? Register now (free) for customized features, flight alerts, and more!